sensor_id;sensor_type;location;lat;lon;timestamp;temperature;humidity
35970;DHT22;22448;51.298;6.430;2023-04-24T00:01:58;10.20;99.90
35970;DHT22;22448;51.298;6.430;2023-04-24T00:04:25;10.20;99.90
35970;DHT22;22448;51.298;6.430;2023-04-24T00:06:53;10.20;99.90
35970;DHT22;22448;51.298;6.430;2023-04-24T00:09:24;10.20;99.90
35970;DHT22;22448;51.298;6.430;2023-04-24T00:11:51;10.20;99.90
35970;DHT22;22448;51.298;6.430;2023-04-24T00:14:19;10.20;99.90
35970;DHT22;22448;51.298;6.430;2023-04-24T00:16:46;10.10;99.90
35970;DHT22;22448;51.298;6.430;2023-04-24T00:19:13;10.10;99.90
35970;DHT22;22448;51.298;6.430;2023-04-24T00:21:40;10.00;99.90
35970;DHT22;22448;51.298;6.430;2023-04-24T00:24:07;10.00;99.90
35970;DHT22;22448;51.298;6.430;2023-04-24T00:26:37;9.90;99.90
35970;DHT22;22448;51.298;6.430;2023-04-24T00:29:04;9.80;99.90
35970;DHT22;22448;51.298;6.430;2023-04-24T00:31:31;9.80;99.90
35970;DHT22;22448;51.298;6.430;2023-04-24T00:34:02;9.70;99.90
35970;DHT22;22448;51.298;6.430;2023-04-24T00:36:29;9.70;99.90
35970;DHT22;22448;51.298;6.430;2023-04-24T00:38:57;9.60;99.90
35970;DHT22;22448;51.298;6.430;2023-04-24T00:41:25;9.60;99.90
35970;DHT22;22448;51.298;6.430;2023-04-24T00:43:52;9.60;99.90
35970;DHT22;22448;51.298;6.430;2023-04-24T00:46:19;9.60;99.90
35970;DHT22;22448;51.298;6.430;2023-04-24T00:48:47;9.60;99.90
35970;DHT22;22448;51.298;6.430;2023-04-24T00:51:14;9.60;99.90
35970;DHT22;22448;51.298;6.430;2023-04-24T00:53:42;9.50;99.90
35970;DHT22;22448;51.298;6.430;2023-04-24T00:56:09;9.50;99.90
35970;DHT22;22448;51.298;6.430;2023-04-24T00:58:37;9.40;99.90
35970;DHT22;22448;51.298;6.430;2023-04-24T01:01:04;9.40;99.90
35970;DHT22;22448;51.298;6.430;2023-04-24T01:03:34;9.30;99.90
35970;DHT22;22448;51.298;6.430;2023-04-24T01:06:04;9.40;99.90
35970;DHT22;22448;51.298;6.430;2023-04-24T01:08:32;9.40;99.90
35970;DHT22;22448;51.298;6.430;2023-04-24T01:11:04;9.40;99.90
35970;DHT22;22448;51.298;6.430;2023-04-24T01:13:32;9.50;99.90
35970;DHT22;22448;51.298;6.430;2023-04-24T01:16:00;9.50;99.90
35970;DHT22;22448;51.298;6.430;2023-04-24T01:18:28;9.50;99.90
35970;DHT22;22448;51.298;6.430;2023-04-24T01:20:58;9.50;99.90
35970;DHT22;22448;51.298;6.430;2023-04-24T01:23:26;9.40;99.90
35970;DHT22;22448;51.298;6.430;2023-04-24T01:25:53;9.40;99.90
35970;DHT22;22448;51.298;6.430;2023-04-24T01:28:20;9.40;99.90
35970;DHT22;22448;51.298;6.430;2023-04-24T01:30:48;9.40;99.90
35970;DHT22;22448;51.298;6.430;2023-04-24T01:33:15;9.40;99.90
35970;DHT22;22448;51.298;6.430;2023-04-24T01:35:43;9.40;99.90
35970;DHT22;22448;51.298;6.430;2023-04-24T01:38:10;9.40;99.90
35970;DHT22;22448;51.298;6.430;2023-04-24T01:40:37;9.40;99.90
35970;DHT22;22448;51.298;6.430;2023-04-24T01:43:05;9.30;99.90
35970;DHT22;22448;51.298;6.430;2023-04-24T01:45:32;9.30;99.90
35970;DHT22;22448;51.298;6.430;2023-04-24T01:48:00;9.30;99.90
35970;DHT22;22448;51.298;6.430;2023-04-24T01:50:27;9.30;99.90
35970;DHT22;22448;51.298;6.430;2023-04-24T01:52:54;9.30;99.90
35970;DHT22;22448;51.298;6.430;2023-04-24T01:55:22;9.20;99.90
35970;DHT22;22448;51.298;6.430;2023-04-24T01:57:49;9.20;99.90
35970;DHT22;22448;51.298;6.430;2023-04-24T02:00:17;9.20;99.90
35970;DHT22;22448;51.298;6.430;2023-04-24T02:02:44;9.20;99.90
35970;DHT22;22448;51.298;6.430;2023-04-24T02:05:14;9.10;99.90
35970;DHT22;22448;51.298;6.430;2023-04-24T02:07:41;9.10;99.90
35970;DHT22;22448;51.298;6.430;2023-04-24T02:10:09;9.10;99.90
35970;DHT22;22448;51.298;6.430;2023-04-24T02:12:41;9.10;99.90
35970;DHT22;22448;51.298;6.430;2023-04-24T02:15:08;9.00;99.90
35970;DHT22;22448;51.298;6.430;2023-04-24T02:17:36;9.00;99.90
35970;DHT22;22448;51.298;6.430;2023-04-24T02:20:05;9.00;99.90
35970;DHT22;22448;51.298;6.430;2023-04-24T02:22:32;9.10;99.90
35970;DHT22;22448;51.298;6.430;2023-04-24T02:25:01;9.10;99.90
35970;DHT22;22448;51.298;6.430;2023-04-24T02:27:28;9.10;99.90
35970;DHT22;22448;51.298;6.430;2023-04-24T02:29:56;9.10;99.90
35970;DHT22;22448;51.298;6.430;2023-04-24T02:32:23;9.10;99.90
35970;DHT22;22448;51.298;6.430;2023-04-24T02:34:50;9.10;99.90
35970;DHT22;22448;51.298;6.430;2023-04-24T02:37:18;9.10;99.90
35970;DHT22;22448;51.298;6.430;2023-04-24T02:39:45;9.10;99.90
35970;DHT22;22448;51.298;6.430;2023-04-24T02:42:12;9.10;99.90
35970;DHT22;22448;51.298;6.430;2023-04-24T02:44:39;9.10;99.90
35970;DHT22;22448;51.298;6.430;2023-04-24T02:47:06;9.10;99.90
35970;DHT22;22448;51.298;6.430;2023-04-24T02:49:34;9.20;99.90
35970;DHT22;22448;51.298;6.430;2023-04-24T02:52:01;9.20;99.90
35970;DHT22;22448;51.298;6.430;2023-04-24T02:54:28;9.20;99.90
35970;DHT22;22448;51.298;6.430;2023-04-24T02:56:55;9.20;99.90
35970;DHT22;22448;51.298;6.430;2023-04-24T02:59:23;9.20;99.90
35970;DHT22;22448;51.298;6.430;2023-04-24T03:01:50;9.20;99.90
35970;DHT22;22448;51.298;6.430;2023-04-24T03:04:17;9.10;99.90
35970;DHT22;22448;51.298;6.430;2023-04-24T03:06:47;9.10;99.90
35970;DHT22;22448;51.298;6.430;2023-04-24T03:09:14;9.20;99.90
35970;DHT22;22448;51.298;6.430;2023-04-24T03:11:41;9.20;99.90
35970;DHT22;22448;51.298;6.430;2023-04-24T03:14:08;9.20;99.90
35970;DHT22;22448;51.298;6.430;2023-04-24T03:16:37;9.20;99.90
35970;DHT22;22448;51.298;6.430;2023-04-24T03:19:06;9.20;99.90
35970;DHT22;22448;51.298;6.430;2023-04-24T03:21:39;9.20;99.90
35970;DHT22;22448;51.298;6.430;2023-04-24T03:24:08;9.20;99.90
35970;DHT22;22448;51.298;6.430;2023-04-24T03:26:36;9.20;99.90
35970;DHT22;22448;51.298;6.430;2023-04-24T03:29:16;9.20;99.90
35970;DHT22;22448;51.298;6.430;2023-04-24T03:31:44;9.20;99.90
35970;DHT22;22448;51.298;6.430;2023-04-24T03:34:11;9.20;99.90
35970;DHT22;22448;51.298;6.430;2023-04-24T03:36:38;9.20;99.90
35970;DHT22;22448;51.298;6.430;2023-04-24T03:39:07;9.20;99.90
35970;DHT22;22448;51.298;6.430;2023-04-24T03:41:36;9.20;99.90
35970;DHT22;22448;51.298;6.430;2023-04-24T03:44:09;9.10;99.90
35970;DHT22;22448;51.298;6.430;2023-04-24T03:46:36;9.20;99.90
35970;DHT22;22448;51.298;6.430;2023-04-24T03:49:03;9.10;99.90
35970;DHT22;22448;51.298;6.430;2023-04-24T03:51:34;9.20;99.90
35970;DHT22;22448;51.298;6.430;2023-04-24T03:54:11;9.20;99.90
35970;DHT22;22448;51.298;6.430;2023-04-24T03:56:39;9.20;99.90
35970;DHT22;22448;51.298;6.430;2023-04-24T03:59:06;9.20;99.90
35970;DHT22;22448;51.298;6.430;2023-04-24T04:01:35;9.20;99.90
35970;DHT22;22448;51.298;6.430;2023-04-24T04:04:13;9.20;99.90
35970;DHT22;22448;51.298;6.430;2023-04-24T04:06:42;9.10;99.90
35970;DHT22;22448;51.298;6.430;2023-04-24T04:09:11;9.10;99.90
35970;DHT22;22448;51.298;6.430;2023-04-24T04:11:38;9.10;99.90
35970;DHT22;22448;51.298;6.430;2023-04-24T04:14:05;9.10;99.90
35970;DHT22;22448;51.298;6.430;2023-04-24T04:16:34;9.10;99.90
35970;DHT22;22448;51.298;6.430;2023-04-24T04:19:04;9.10;99.90
35970;DHT22;22448;51.298;6.430;2023-04-24T04:21:32;9.10;99.90
35970;DHT22;22448;51.298;6.430;2023-04-24T04:24:12;9.10;99.90
35970;DHT22;22448;51.298;6.430;2023-04-24T04:26:43;9.10;99.90
35970;DHT22;22448;51.298;6.430;2023-04-24T04:29:22;9.00;99.90
35970;DHT22;22448;51.298;6.430;2023-04-24T04:31:51;9.00;99.90
35970;DHT22;22448;51.298;6.430;2023-04-24T04:34:20;9.00;99.90
35970;DHT22;22448;51.298;6.430;2023-04-24T04:36:47;9.00;99.90
35970;DHT22;22448;51.298;6.430;2023-04-24T04:39:31;9.00;99.90
35970;DHT22;22448;51.298;6.430;2023-04-24T04:42:04;9.00;99.90
35970;DHT22;22448;51.298;6.430;2023-04-24T04:44:37;9.00;99.90
35970;DHT22;22448;51.298;6.430;2023-04-24T04:47:06;9.00;99.90
35970;DHT22;22448;51.298;6.430;2023-04-24T04:49:35;9.00;99.90
35970;DHT22;22448;51.298;6.430;2023-04-24T04:52:04;9.00;99.90
35970;DHT22;22448;51.298;6.430;2023-04-24T04:54:31;8.90;99.90
35970;DHT22;22448;51.298;6.430;2023-04-24T04:56:58;8.90;99.90
35970;DHT22;22448;51.298;6.430;2023-04-24T04:59:30;8.90;99.90
35970;DHT22;22448;51.298;6.430;2023-04-24T05:02:03;8.80;99.90
35970;DHT22;22448;51.298;6.430;2023-04-24T05:04:30;8.80;99.90
35970;DHT22;22448;51.298;6.430;2023-04-24T05:06:58;8.70;99.90
35970;DHT22;22448;51.298;6.430;2023-04-24T05:09:28;8.60;99.90
35970;DHT22;22448;51.298;6.430;2023-04-24T05:12:01;8.60;99.90
35970;DHT22;22448;51.298;6.430;2023-04-24T05:14:33;8.60;99.90
35970;DHT22;22448;51.298;6.430;2023-04-24T05:17:00;8.60;99.90
35970;DHT22;22448;51.298;6.430;2023-04-24T05:19:29;8.60;99.90
35970;DHT22;22448;51.298;6.430;2023-04-24T05:21:56;8.60;99.90
35970;DHT22;22448;51.298;6.430;2023-04-24T05:24:23;8.60;99.90
35970;DHT22;22448;51.298;6.430;2023-04-24T05:27:09;8.60;99.90
35970;DHT22;22448;51.298;6.430;2023-04-24T05:29:39;8.70;99.90
35970;DHT22;22448;51.298;6.430;2023-04-24T05:32:08;8.70;99.90
35970;DHT22;22448;51.298;6.430;2023-04-24T05:34:35;8.80;99.90
35970;DHT22;22448;51.298;6.430;2023-04-24T05:37:02;8.80;99.90
35970;DHT22;22448;51.298;6.430;2023-04-24T05:39:30;8.80;99.90
35970;DHT22;22448;51.298;6.430;2023-04-24T05:41:58;8.90;99.90
35970;DHT22;22448;51.298;6.430;2023-04-24T05:44:26;8.90;99.90
35970;DHT22;22448;51.298;6.430;2023-04-24T05:46:53;8.90;99.90
35970;DHT22;22448;51.298;6.430;2023-04-24T05:49:22;8.80;99.90
35970;DHT22;22448;51.298;6.430;2023-04-24T05:51:49;8.80;99.90
35970;DHT22;22448;51.298;6.430;2023-04-24T05:54:17;8.80;99.90
35970;DHT22;22448;51.298;6.430;2023-04-24T05:56:44;8.70;99.90
35970;DHT22;22448;51.298;6.430;2023-04-24T05:59:14;8.70;99.90
35970;DHT22;22448;51.298;6.430;2023-04-24T06:01:41;8.60;99.90
35970;DHT22;22448;51.298;6.430;2023-04-24T06:04:14;8.60;99.90
35970;DHT22;22448;51.298;6.430;2023-04-24T06:06:41;8.50;99.90
35970;DHT22;22448;51.298;6.430;2023-04-24T06:09:09;8.50;99.90
35970;DHT22;22448;51.298;6.430;2023-04-24T06:11:36;8.50;99.90
35970;DHT22;22448;51.298;6.430;2023-04-24T06:14:03;8.50;99.90
35970;DHT22;22448;51.298;6.430;2023-04-24T06:16:36;8.50;99.90
35970;DHT22;22448;51.298;6.430;2023-04-24T06:19:11;8.40;99.90
35970;DHT22;22448;51.298;6.430;2023-04-24T06:21:38;8.40;99.90
35970;DHT22;22448;51.298;6.430;2023-04-24T06:24:05;8.40;99.90
35970;DHT22;22448;51.298;6.430;2023-04-24T06:26:32;8.40;99.90
35970;DHT22;22448;51.298;6.430;2023-04-24T06:28:59;8.50;99.90
35970;DHT22;22448;51.298;6.430;2023-04-24T06:31:27;8.50;99.90
35970;DHT22;22448;51.298;6.430;2023-04-24T06:33:54;8.50;99.90
35970;DHT22;22448;51.298;6.430;2023-04-24T06:36:21;8.60;99.90
35970;DHT22;22448;51.298;6.430;2023-04-24T06:38:48;8.70;99.90
35970;DHT22;22448;51.298;6.430;2023-04-24T06:41:15;8.70;99.90
35970;DHT22;22448;51.298;6.430;2023-04-24T06:43:42;8.70;99.90
35970;DHT22;22448;51.298;6.430;2023-04-24T06:46:09;8.70;99.90
35970;DHT22;22448;51.298;6.430;2023-04-24T06:48:36;8.70;99.90
35970;DHT22;22448;51.298;6.430;2023-04-24T06:51:03;8.60;99.90
35970;DHT22;22448;51.298;6.430;2023-04-24T06:53:30;8.50;99.90
35970;DHT22;22448;51.298;6.430;2023-04-24T06:55:57;8.50;99.90
35970;DHT22;22448;51.298;6.430;2023-04-24T06:58:25;8.50;99.90
35970;DHT22;22448;51.298;6.430;2023-04-24T07:00:52;8.50;99.90
35970;DHT22;22448;51.298;6.430;2023-04-24T07:03:19;8.50;99.90
35970;DHT22;22448;51.298;6.430;2023-04-24T07:05:46;8.40;99.90
35970;DHT22;22448;51.298;6.430;2023-04-24T07:08:14;8.30;99.90
35970;DHT22;22448;51.298;6.430;2023-04-24T07:10:44;8.20;99.90
35970;DHT22;22448;51.298;6.430;2023-04-24T07:13:11;8.20;99.90
35970;DHT22;22448;51.298;6.430;2023-04-24T07:15:38;8.10;99.90
35970;DHT22;22448;51.298;6.430;2023-04-24T07:18:06;8.00;99.90
35970;DHT22;22448;51.298;6.430;2023-04-24T07:20:33;8.00;99.90
35970;DHT22;22448;51.298;6.430;2023-04-24T07:23:01;7.90;99.90
35970;DHT22;22448;51.298;6.430;2023-04-24T07:25:28;7.80;99.90
35970;DHT22;22448;51.298;6.430;2023-04-24T07:27:55;7.80;99.90
35970;DHT22;22448;51.298;6.430;2023-04-24T07:30:22;7.80;99.90
35970;DHT22;22448;51.298;6.430;2023-04-24T07:32:49;7.70;99.90
35970;DHT22;22448;51.298;6.430;2023-04-24T07:35:17;7.70;99.90
35970;DHT22;22448;51.298;6.430;2023-04-24T07:37:44;7.70;99.90
35970;DHT22;22448;51.298;6.430;2023-04-24T07:40:13;7.70;99.90
35970;DHT22;22448;51.298;6.430;2023-04-24T07:42:40;7.80;99.90
35970;DHT22;22448;51.298;6.430;2023-04-24T07:45:07;7.80;99.90
35970;DHT22;22448;51.298;6.430;2023-04-24T07:47:34;7.90;99.90
35970;DHT22;22448;51.298;6.430;2023-04-24T07:50:01;7.90;99.90
35970;DHT22;22448;51.298;6.430;2023-04-24T07:52:28;7.80;99.90
35970;DHT22;22448;51.298;6.430;2023-04-24T07:54:55;7.90;99.90
35970;DHT22;22448;51.298;6.430;2023-04-24T07:57:25;8.00;99.90
35970;DHT22;22448;51.298;6.430;2023-04-24T07:59:52;8.10;99.90
35970;DHT22;22448;51.298;6.430;2023-04-24T08:02:19;8.00;99.90
35970;DHT22;22448;51.298;6.430;2023-04-24T08:04:46;8.00;99.90
35970;DHT22;22448;51.298;6.430;2023-04-24T08:07:13;8.10;99.90
35970;DHT22;22448;51.298;6.430;2023-04-24T08:09:41;8.20;99.90
35970;DHT22;22448;51.298;6.430;2023-04-24T08:12:08;8.30;99.90
35970;DHT22;22448;51.298;6.430;2023-04-24T08:14:35;8.40;99.90
35970;DHT22;22448;51.298;6.430;2023-04-24T08:17:02;8.40;99.90
35970;DHT22;22448;51.298;6.430;2023-04-24T08:19:30;8.50;99.90
35970;DHT22;22448;51.298;6.430;2023-04-24T08:21:57;8.40;99.90
35970;DHT22;22448;51.298;6.430;2023-04-24T08:24:24;8.30;99.90
35970;DHT22;22448;51.298;6.430;2023-04-24T08:26:51;8.20;99.90
35970;DHT22;22448;51.298;6.430;2023-04-24T08:29:19;8.10;99.90
35970;DHT22;22448;51.298;6.430;2023-04-24T08:31:46;8.10;99.90
35970;DHT22;22448;51.298;6.430;2023-04-24T08:34:13;8.20;99.90
35970;DHT22;22448;51.298;6.430;2023-04-24T08:36:42;8.20;99.90
35970;DHT22;22448;51.298;6.430;2023-04-24T08:39:13;8.30;99.90
35970;DHT22;22448;51.298;6.430;2023-04-24T08:41:42;8.20;99.90
35970;DHT22;22448;51.298;6.430;2023-04-24T08:44:13;8.10;99.90
35970;DHT22;22448;51.298;6.430;2023-04-24T08:46:43;8.00;99.90
35970;DHT22;22448;51.298;6.430;2023-04-24T08:49:13;8.00;99.90
35970;DHT22;22448;51.298;6.430;2023-04-24T08:51:43;8.00;99.90
35970;DHT22;22448;51.298;6.430;2023-04-24T08:54:12;8.00;99.90
35970;DHT22;22448;51.298;6.430;2023-04-24T08:56:40;8.10;99.90
35970;DHT22;22448;51.298;6.430;2023-04-24T08:59:09;8.10;99.90
35970;DHT22;22448;51.298;6.430;2023-04-24T09:01:37;8.10;99.90
35970;DHT22;22448;51.298;6.430;2023-04-24T09:04:08;8.20;99.90
35970;DHT22;22448;51.298;6.430;2023-04-24T09:06:37;8.20;99.90
35970;DHT22;22448;51.298;6.430;2023-04-24T09:09:04;8.20;99.90
35970;DHT22;22448;51.298;6.430;2023-04-24T09:11:32;8.20;99.90
35970;DHT22;22448;51.298;6.430;2023-04-24T09:14:00;8.10;99.90
35970;DHT22;22448;51.298;6.430;2023-04-24T09:16:27;8.10;99.90
35970;DHT22;22448;51.298;6.430;2023-04-24T09:18:55;8.10;99.90
35970;DHT22;22448;51.298;6.430;2023-04-24T09:21:22;8.20;99.90
35970;DHT22;22448;51.298;6.430;2023-04-24T09:24:01;8.20;99.90
35970;DHT22;22448;51.298;6.430;2023-04-24T09:26:31;8.20;99.90
35970;DHT22;22448;51.298;6.430;2023-04-24T09:28:59;8.30;99.90
35970;DHT22;22448;51.298;6.430;2023-04-24T09:31:29;8.40;99.90
35970;DHT22;22448;51.298;6.430;2023-04-24T09:34:04;8.50;99.90
35970;DHT22;22448;51.298;6.430;2023-04-24T09:36:42;8.70;99.90
35970;DHT22;22448;51.298;6.430;2023-04-24T09:39:14;8.60;99.90
35970;DHT22;22448;51.298;6.430;2023-04-24T09:41:46;8.70;99.90
35970;DHT22;22448;51.298;6.430;2023-04-24T09:44:18;8.70;99.90
35970;DHT22;22448;51.298;6.430;2023-04-24T09:46:55;8.80;99.90
35970;DHT22;22448;51.298;6.430;2023-04-24T09:49:25;8.90;99.90
35970;DHT22;22448;51.298;6.430;2023-04-24T09:52:02;9.00;99.90
35970;DHT22;22448;51.298;6.430;2023-04-24T09:54:29;9.00;99.90
35970;DHT22;22448;51.298;6.430;2023-04-24T09:56:56;9.00;99.90
35970;DHT22;22448;51.298;6.430;2023-04-24T09:59:23;8.90;99.90
35970;DHT22;22448;51.298;6.430;2023-04-24T10:01:50;8.80;99.90
35970;DHT22;22448;51.298;6.430;2023-04-24T10:06:48;8.80;99.90
35970;DHT22;22448;51.298;6.430;2023-04-24T10:09:17;8.70;99.90
35970;DHT22;22448;51.298;6.430;2023-04-24T10:11:48;8.70;99.90
35970;DHT22;22448;51.298;6.430;2023-04-24T10:14:20;8.70;99.90
35970;DHT22;22448;51.298;6.430;2023-04-24T10:16:48;8.70;99.90
35970;DHT22;22448;51.298;6.430;2023-04-24T10:19:16;8.70;99.90
35970;DHT22;22448;51.298;6.430;2023-04-24T10:21:45;8.70;99.90
35970;DHT22;22448;51.298;6.430;2023-04-24T10:24:17;8.70;99.90
35970;DHT22;22448;51.298;6.430;2023-04-24T10:26:45;8.70;99.90
35970;DHT22;22448;51.298;6.430;2023-04-24T10:29:14;8.70;99.90
35970;DHT22;22448;51.298;6.430;2023-04-24T10:31:42;8.70;99.90
35970;DHT22;22448;51.298;6.430;2023-04-24T10:34:15;8.80;99.90
35970;DHT22;22448;51.298;6.430;2023-04-24T10:36:50;8.80;99.90
35970;DHT22;22448;51.298;6.430;2023-04-24T10:39:20;8.90;99.90
35970;DHT22;22448;51.298;6.430;2023-04-24T10:41:54;9.10;99.90
35970;DHT22;22448;51.298;6.430;2023-04-24T10:44:24;9.50;99.90
35970;DHT22;22448;51.298;6.430;2023-04-24T10:46:55;10.00;99.90
35970;DHT22;22448;51.298;6.430;2023-04-24T10:49:30;10.50;99.90
35970;DHT22;22448;51.298;6.430;2023-04-24T10:52:04;10.60;99.90
35970;DHT22;22448;51.298;6.430;2023-04-24T11:02:54;9.40;99.90
35970;DHT22;22448;51.298;6.430;2023-04-24T11:05:22;9.30;99.90
35970;DHT22;22448;51.298;6.430;2023-04-24T11:08:12;9.30;99.90
35970;DHT22;22448;51.298;6.430;2023-04-24T11:10:46;9.30;99.90
35970;DHT22;22448;51.298;6.430;2023-04-24T11:13:17;9.50;99.90
35970;DHT22;22448;51.298;6.430;2023-04-24T11:16:14;9.80;99.90
35970;DHT22;22448;51.298;6.430;2023-04-24T11:18:43;10.10;99.90
35970;DHT22;22448;51.298;6.430;2023-04-24T11:21:18;10.40;99.90
35970;DHT22;22448;51.298;6.430;2023-04-24T11:23:45;10.80;99.90
35970;DHT22;22448;51.298;6.430;2023-04-24T11:26:17;11.00;99.90
35970;DHT22;22448;51.298;6.430;2023-04-24T11:28:46;10.90;99.90
35970;DHT22;22448;51.298;6.430;2023-04-24T11:31:36;10.60;99.90
35970;DHT22;22448;51.298;6.430;2023-04-24T11:34:11;10.30;99.90
35970;DHT22;22448;51.298;6.430;2023-04-24T11:36:39;10.10;99.90
35970;DHT22;22448;51.298;6.430;2023-04-24T11:39:07;9.90;99.90
35970;DHT22;22448;51.298;6.430;2023-04-24T11:41:34;9.90;99.90
35970;DHT22;22448;51.298;6.430;2023-04-24T11:44:03;9.90;99.90
35970;DHT22;22448;51.298;6.430;2023-04-24T11:46:32;9.90;99.90
35970;DHT22;22448;51.298;6.430;2023-04-24T11:49:00;10.20;99.90
35970;DHT22;22448;51.298;6.430;2023-04-24T11:51:27;10.30;99.90
35970;DHT22;22448;51.298;6.430;2023-04-24T11:54:07;10.40;99.90
35970;DHT22;22448;51.298;6.430;2023-04-24T11:56:34;10.40;99.90
35970;DHT22;22448;51.298;6.430;2023-04-24T11:59:04;10.50;99.90
35970;DHT22;22448;51.298;6.430;2023-04-24T12:01:45;10.50;99.90
35970;DHT22;22448;51.298;6.430;2023-04-24T12:04:13;10.50;99.90
35970;DHT22;22448;51.298;6.430;2023-04-24T12:07:10;10.50;99.90
35970;DHT22;22448;51.298;6.430;2023-04-24T12:09:45;10.60;99.90
35970;DHT22;22448;51.298;6.430;2023-04-24T12:12:15;10.80;99.90
35970;DHT22;22448;51.298;6.430;2023-04-24T12:14:49;11.00;99.90
35970;DHT22;22448;51.298;6.430;2023-04-24T12:17:17;11.20;99.90
35970;DHT22;22448;51.298;6.430;2023-04-24T12:19:47;11.60;99.90
35970;DHT22;22448;51.298;6.430;2023-04-24T12:22:15;11.90;99.90
35970;DHT22;22448;51.298;6.430;2023-04-24T12:27:24;12.10;99.90
35970;DHT22;22448;51.298;6.430;2023-04-24T12:29:59;12.10;99.90
35970;DHT22;22448;51.298;6.430;2023-04-24T12:32:26;12.00;99.90
35970;DHT22;22448;51.298;6.430;2023-04-24T12:34:55;11.80;99.90
35970;DHT22;22448;51.298;6.430;2023-04-24T12:37:26;11.80;99.90
35970;DHT22;22448;51.298;6.430;2023-04-24T12:40:06;11.80;99.90
35970;DHT22;22448;51.298;6.430;2023-04-24T12:42:35;11.80;99.90
35970;DHT22;22448;51.298;6.430;2023-04-24T12:45:04;11.80;99.90
35970;DHT22;22448;51.298;6.430;2023-04-24T12:47:33;11.80;99.90
35970;DHT22;22448;51.298;6.430;2023-04-24T12:50:01;11.90;99.90
35970;DHT22;22448;51.298;6.430;2023-04-24T12:52:29;11.90;99.90
35970;DHT22;22448;51.298;6.430;2023-04-24T12:54:59;12.00;99.90
35970;DHT22;22448;51.298;6.430;2023-04-24T12:57:28;11.90;99.90
35970;DHT22;22448;51.298;6.430;2023-04-24T12:59:56;12.00;99.90
35970;DHT22;22448;51.298;6.430;2023-04-24T13:02:28;12.00;99.90
35970;DHT22;22448;51.298;6.430;2023-04-24T13:04:57;11.90;99.90
35970;DHT22;22448;51.298;6.430;2023-04-24T13:07:25;11.80;99.90
35970;DHT22;22448;51.298;6.430;2023-04-24T13:09:53;11.90;99.90
35970;DHT22;22448;51.298;6.430;2023-04-24T13:12:21;12.00;99.90
35970;DHT22;22448;51.298;6.430;2023-04-24T13:14:48;12.10;99.90
35970;DHT22;22448;51.298;6.430;2023-04-24T13:17:15;12.00;99.90
35970;DHT22;22448;51.298;6.430;2023-04-24T13:19:43;12.00;99.90
35970;DHT22;22448;51.298;6.430;2023-04-24T13:22:11;12.00;99.90
35970;DHT22;22448;51.298;6.430;2023-04-24T13:24:39;12.00;99.90
35970;DHT22;22448;51.298;6.430;2023-04-24T13:27:09;12.00;99.90
35970;DHT22;22448;51.298;6.430;2023-04-24T13:29:37;12.00;99.90
35970;DHT22;22448;51.298;6.430;2023-04-24T13:32:04;12.10;99.90
35970;DHT22;22448;51.298;6.430;2023-04-24T13:34:31;12.10;99.90
35970;DHT22;22448;51.298;6.430;2023-04-24T13:36:58;12.10;99.90
35970;DHT22;22448;51.298;6.430;2023-04-24T13:39:26;12.20;99.90
35970;DHT22;22448;51.298;6.430;2023-04-24T13:41:53;12.20;99.90
35970;DHT22;22448;51.298;6.430;2023-04-24T13:44:21;12.30;99.90
35970;DHT22;22448;51.298;6.430;2023-04-24T13:46:51;12.30;99.90
35970;DHT22;22448;51.298;6.430;2023-04-24T13:49:21;12.50;99.90
35970;DHT22;22448;51.298;6.430;2023-04-24T13:51:48;12.60;99.90
35970;DHT22;22448;51.298;6.430;2023-04-24T13:54:15;12.50;99.90
35970;DHT22;22448;51.298;6.430;2023-04-24T13:56:42;12.50;99.90
35970;DHT22;22448;51.298;6.430;2023-04-24T13:59:09;12.40;99.90
35970;DHT22;22448;51.298;6.430;2023-04-24T14:01:36;12.20;99.90
35970;DHT22;22448;51.298;6.430;2023-04-24T14:04:03;12.00;99.90
35970;DHT22;22448;51.298;6.430;2023-04-24T14:06:30;11.90;99.90
35970;DHT22;22448;51.298;6.430;2023-04-24T14:08:58;11.90;99.90
35970;DHT22;22448;51.298;6.430;2023-04-24T14:11:26;12.00;99.90
35970;DHT22;22448;51.298;6.430;2023-04-24T14:13:54;12.20;99.90
35970;DHT22;22448;51.298;6.430;2023-04-24T14:16:22;12.30;99.90
35970;DHT22;22448;51.298;6.430;2023-04-24T14:18:49;12.50;99.90
35970;DHT22;22448;51.298;6.430;2023-04-24T14:21:16;12.50;99.90
35970;DHT22;22448;51.298;6.430;2023-04-24T14:23:43;12.70;99.90
35970;DHT22;22448;51.298;6.430;2023-04-24T14:26:11;12.70;99.90
35970;DHT22;22448;51.298;6.430;2023-04-24T14:28:38;12.80;99.90
35970;DHT22;22448;51.298;6.430;2023-04-24T14:31:05;12.70;99.90
35970;DHT22;22448;51.298;6.430;2023-04-24T14:33:32;12.60;99.90
35970;DHT22;22448;51.298;6.430;2023-04-24T14:35:59;12.60;99.90
35970;DHT22;22448;51.298;6.430;2023-04-24T14:38:26;12.70;99.90
35970;DHT22;22448;51.298;6.430;2023-04-24T14:40:53;12.80;99.90
35970;DHT22;22448;51.298;6.430;2023-04-24T14:43:23;12.70;99.90
35970;DHT22;22448;51.298;6.430;2023-04-24T14:45:51;12.60;99.90
35970;DHT22;22448;51.298;6.430;2023-04-24T14:48:18;12.80;99.90
35970;DHT22;22448;51.298;6.430;2023-04-24T14:50:45;12.80;99.90
35970;DHT22;22448;51.298;6.430;2023-04-24T14:53:12;12.60;99.90
35970;DHT22;22448;51.298;6.430;2023-04-24T14:55:39;12.50;99.90
35970;DHT22;22448;51.298;6.430;2023-04-24T14:58:06;12.40;99.90
35970;DHT22;22448;51.298;6.430;2023-04-24T15:00:33;12.40;99.90
35970;DHT22;22448;51.298;6.430;2023-04-24T15:03:01;12.50;99.90
35970;DHT22;22448;51.298;6.430;2023-04-24T15:05:28;12.70;99.90
35970;DHT22;22448;51.298;6.430;2023-04-24T15:07:56;12.80;99.90
35970;DHT22;22448;51.298;6.430;2023-04-24T15:10:23;12.90;99.90
35970;DHT22;22448;51.298;6.430;2023-04-24T15:12:50;12.90;99.90
35970;DHT22;22448;51.298;6.430;2023-04-24T15:15:17;13.00;99.90
35970;DHT22;22448;51.298;6.430;2023-04-24T15:17:44;13.20;99.90
35970;DHT22;22448;51.298;6.430;2023-04-24T15:20:11;13.20;99.90
35970;DHT22;22448;51.298;6.430;2023-04-24T15:22:38;13.00;99.90
35970;DHT22;22448;51.298;6.430;2023-04-24T15:25:05;12.90;99.90
35970;DHT22;22448;51.298;6.430;2023-04-24T15:27:43;12.80;99.90
35970;DHT22;22448;51.298;6.430;2023-04-24T15:30:12;12.70;99.90
35970;DHT22;22448;51.298;6.430;2023-04-24T15:32:39;12.70;99.90
35970;DHT22;22448;51.298;6.430;2023-04-24T15:35:06;12.50;99.90
35970;DHT22;22448;51.298;6.430;2023-04-24T15:37:37;12.30;99.90
35970;DHT22;22448;51.298;6.430;2023-04-24T15:40:05;12.10;99.90
35970;DHT22;22448;51.298;6.430;2023-04-24T15:42:34;12.00;99.90
35970;DHT22;22448;51.298;6.430;2023-04-24T15:45:01;11.80;99.90
35970;DHT22;22448;51.298;6.430;2023-04-24T15:47:28;11.70;99.90
35970;DHT22;22448;51.298;6.430;2023-04-24T15:49:55;11.60;99.90
35970;DHT22;22448;51.298;6.430;2023-04-24T15:52:23;11.60;99.90
35970;DHT22;22448;51.298;6.430;2023-04-24T15:54:50;11.70;99.90
35970;DHT22;22448;51.298;6.430;2023-04-24T15:57:18;11.90;99.90
35970;DHT22;22448;51.298;6.430;2023-04-24T15:59:45;12.00;99.90
35970;DHT22;22448;51.298;6.430;2023-04-24T16:02:13;12.00;99.90
35970;DHT22;22448;51.298;6.430;2023-04-24T16:04:45;12.00;99.90